sensor_id;sensor_type;location;lat;lon;timestamp;pressure;altitude;pressure_sealevel;temperature;humidity
78117;BME280;69042;59.120;37.904;2023-12-28T00:01:42;99146.44;;;-3.07;72.99
78117;BME280;69042;59.120;37.904;2023-12-28T00:04:09;99147.31;;;-3.08;72.71
78117;BME280;69042;59.120;37.904;2023-12-28T00:06:35;99146.44;;;-3.10;72.71
78117;BME280;69042;59.120;37.904;2023-12-28T00:09:01;99155.81;;;-3.16;72.68
78117;BME280;69042;59.120;37.904;2023-12-28T00:11:27;99148.16;;;-3.20;72.76
78117;BME280;69042;59.120;37.904;2023-12-28T00:13:54;99159.25;;;-3.23;72.07
78117;BME280;69042;59.120;37.904;2023-12-28T00:16:20;99156.69;;;-3.27;72.72
78117;BME280;69042;59.120;37.904;2023-12-28T00:18:46;99157.53;;;-3.27;72.72
78117;BME280;69042;59.120;37.904;2023-12-28T00:21:12;99157.53;;;-3.25;73.15
78117;BME280;69042;59.120;37.904;2023-12-28T00:23:39;99166.06;;;-3.25;73.13
78117;BME280;69042;59.120;37.904;2023-12-28T00:26:05;99156.69;;;-3.23;72.86
78117;BME280;69042;59.120;37.904;2023-12-28T00:28:31;99160.97;;;-3.28;72.89
78117;BME280;69042;59.120;37.904;2023-12-28T00:30:57;99168.63;;;-3.29;72.71
78117;BME280;69042;59.120;37.904;2023-12-28T00:33:24;99177.97;;;-3.31;72.39
78117;BME280;69042;59.120;37.904;2023-12-28T00:35:50;99178.84;;;-3.37;73.02
78117;BME280;69042;59.120;37.904;2023-12-28T00:38:16;99175.47;;;-3.42;73.27
78117;BME280;69042;59.120;37.904;2023-12-28T00:40:43;99180.56;;;-3.48;72.35
78117;BME280;69042;59.120;37.904;2023-12-28T00:43:09;99173.75;;;-3.57;72.79
78117;BME280;69042;59.120;37.904;2023-12-28T00:45:35;99182.25;;;-3.66;72.94
78117;BME280;69042;59.120;37.904;2023-12-28T00:48:02;99176.31;;;-3.71;72.66
78117;BME280;69042;59.120;37.904;2023-12-28T00:50:28;99181.41;;;-3.77;73.43
78117;BME280;69042;59.120;37.904;2023-12-28T00:52:57;99192.44;;;-3.81;73.36
78117;BME280;69042;59.120;37.904;2023-12-28T00:55:23;99178.00;;;-3.87;73.43
78117;BME280;69042;59.120;37.904;2023-12-28T00:57:50;99180.53;;;-3.96;73.55
78117;BME280;69042;59.120;37.904;2023-12-28T01:00:16;99192.41;;;-4.01;72.96
78117;BME280;69042;59.120;37.904;2023-12-28T01:02:42;99193.28;;;-4.02;73.91
78117;BME280;69042;59.120;37.904;2023-12-28T01:05:13;99192.44;;;-4.07;74.24
78117;BME280;69042;59.120;37.904;2023-12-28T01:07:41;99193.28;;;-4.07;74.40
78117;BME280;69042;59.120;37.904;2023-12-28T01:10:07;99190.75;;;-4.05;73.78
78117;BME280;69042;59.120;37.904;2023-12-28T01:12:34;99194.13;;;-4.03;73.92
78117;BME280;69042;59.120;37.904;2023-12-28T01:15:00;99206.03;;;-3.98;74.00
78117;BME280;69042;59.120;37.904;2023-12-28T01:17:26;99214.56;;;-3.95;73.94
78117;BME280;69042;59.120;37.904;2023-12-28T01:19:53;99217.97;;;-3.95;74.48
78117;BME280;69042;59.120;37.904;2023-12-28T01:22:19;99217.97;;;-3.93;74.19
78117;BME280;69042;59.120;37.904;2023-12-28T01:24:48;99224.78;;;-3.91;73.80
78117;BME280;69042;59.120;37.904;2023-12-28T01:27:15;99223.06;;;-3.92;74.29
78117;BME280;69042;59.120;37.904;2023-12-28T01:29:42;99218.81;;;-3.94;74.57
78117;BME280;69042;59.120;37.904;2023-12-28T01:32:09;99217.97;;;-3.95;74.65
78117;BME280;69042;59.120;37.904;2023-12-28T01:34:37;99223.91;;;-3.93;74.24
78117;BME280;69042;59.120;37.904;2023-12-28T01:37:03;99229.03;;;-3.93;74.58
78117;BME280;69042;59.120;37.904;2023-12-28T01:39:29;99220.50;;;-3.98;73.72
78117;BME280;69042;59.120;37.904;2023-12-28T01:41:56;99223.88;;;-4.04;74.35
78117;BME280;69042;59.120;37.904;2023-12-28T01:44:22;99219.63;;;-4.09;75.00
78117;BME280;69042;59.120;37.904;2023-12-28T01:46:48;99216.19;;;-4.14;74.83
78117;BME280;69042;59.120;37.904;2023-12-28T01:49:15;99230.63;;;-4.21;75.21
78117;BME280;69042;59.120;37.904;2023-12-28T01:51:42;99234.91;;;-4.23;74.75
78117;BME280;69042;59.120;37.904;2023-12-28T01:54:10;99241.66;;;-4.28;74.88
78117;BME280;69042;59.120;37.904;2023-12-28T01:56:37;99238.25;;;-4.35;75.24
78117;BME280;69042;59.120;37.904;2023-12-28T01:59:03;99247.59;;;-4.35;74.91
78117;BME280;69042;59.120;37.904;2023-12-28T02:01:31;99251.00;;;-4.41;75.10
78117;BME280;69042;59.120;37.904;2023-12-28T02:03:58;99259.47;;;-4.39;75.38
78117;BME280;69042;59.120;37.904;2023-12-28T02:06:24;99271.38;;;-4.38;75.71
78117;BME280;69042;59.120;37.904;2023-12-28T02:08:51;99267.13;;;-4.39;75.00
78117;BME280;69042;59.120;37.904;2023-12-28T02:11:19;99272.22;;;-4.41;75.35
78117;BME280;69042;59.120;37.904;2023-12-28T02:13:46;99269.66;;;-4.39;75.09
78117;BME280;69042;59.120;37.904;2023-12-28T02:16:35;99268.00;;;-4.35;75.28
78117;BME280;69042;59.120;37.904;2023-12-28T02:20:02;99272.25;;;-4.31;75.86
78117;BME280;69042;59.120;37.904;2023-12-28T02:22:05;99265.47;;;-4.29;74.98
78117;BME280;69042;59.120;37.904;2023-12-28T02:27:38;99278.25;;;-4.22;75.36
78117;BME280;69042;59.120;37.904;2023-12-28T02:30:06;99281.69;;;-4.18;75.43
78117;BME280;69042;59.120;37.904;2023-12-28T02:33:19;99281.69;;;-4.15;76.12
78117;BME280;69042;59.120;37.904;2023-12-28T02:35:52;99292.75;;;-4.10;75.48
78117;BME280;69042;59.120;37.904;2023-12-28T02:38:21;99293.63;;;-4.06;75.35
78117;BME280;69042;59.120;37.904;2023-12-28T02:40:50;99299.56;;;-4.04;75.52
78117;BME280;69042;59.120;37.904;2023-12-28T02:43:17;99302.13;;;-4.06;74.74
78117;BME280;69042;59.120;37.904;2023-12-28T02:45:43;99303.84;;;-4.05;74.76
78117;BME280;69042;59.120;37.904;2023-12-28T02:48:10;99308.94;;;-4.06;75.14
78117;BME280;69042;59.120;37.904;2023-12-28T02:50:37;99303.81;;;-4.08;74.64
78117;BME280;69042;59.120;37.904;2023-12-28T02:53:03;99307.22;;;-4.06;75.30
78117;BME280;69042;59.120;37.904;2023-12-28T02:55:30;99310.63;;;-4.04;75.32
78117;BME280;69042;59.120;37.904;2023-12-28T02:57:57;99314.06;;;-4.00;75.11
78117;BME280;69042;59.120;37.904;2023-12-28T03:00:27;99301.28;;;-3.99;75.62
78117;BME280;69042;59.120;37.904;2023-12-28T03:02:54;99307.25;;;-3.97;75.07
78117;BME280;69042;59.120;37.904;2023-12-28T03:05:21;99317.47;;;-3.92;75.28
78117;BME280;69042;59.120;37.904;2023-12-28T03:07:49;99318.34;;;-3.88;74.97
78117;BME280;69042;59.120;37.904;2023-12-28T03:10:16;99321.78;;;-3.82;75.72
78117;BME280;69042;59.120;37.904;2023-12-28T03:12:43;99325.19;;;-3.72;75.44
78117;BME280;69042;59.120;37.904;2023-12-28T03:15:09;99333.75;;;-3.62;76.25
78117;BME280;69042;59.120;37.904;2023-12-28T03:17:36;99338.84;;;-3.51;75.60
78117;BME280;69042;59.120;37.904;2023-12-28T03:20:03;99315.88;;;-3.47;75.46
78117;BME280;69042;59.120;37.904;2023-12-28T03:22:30;99315.91;;;-3.42;74.99
78117;BME280;69042;59.120;37.904;2023-12-28T03:24:56;99321.88;;;-3.42;74.84
78117;BME280;69042;59.120;37.904;2023-12-28T03:27:22;99320.16;;;-3.44;75.22
78117;BME280;69042;59.120;37.904;2023-12-28T03:29:48;99330.38;;;-3.46;75.00
78117;BME280;69042;59.120;37.904;2023-12-28T03:32:15;99324.41;;;-3.40;75.43
78117;BME280;69042;59.120;37.904;2023-12-28T03:34:42;99326.13;;;-3.35;75.19
78117;BME280;69042;59.120;37.904;2023-12-28T03:37:08;99334.66;;;-3.28;75.58
78117;BME280;69042;59.120;37.904;2023-12-28T03:39:37;99326.16;;;-3.24;75.30
78117;BME280;69042;59.120;37.904;2023-12-28T03:42:04;99332.13;;;-3.22;74.44
78117;BME280;69042;59.120;37.904;2023-12-28T03:44:30;99336.34;;;-3.22;74.83
78117;BME280;69042;59.120;37.904;2023-12-28T03:46:56;99332.09;;;-3.25;74.18
78117;BME280;69042;59.120;37.904;2023-12-28T03:49:23;99339.75;;;-3.29;74.73
78117;BME280;69042;59.120;37.904;2023-12-28T03:51:50;99338.91;;;-3.31;74.35
78117;BME280;69042;59.120;37.904;2023-12-28T03:54:17;99332.09;;;-3.32;74.87
78117;BME280;69042;59.120;37.904;2023-12-28T03:56:45;99329.53;;;-3.37;74.20
78117;BME280;69042;59.120;37.904;2023-12-28T03:59:11;99341.47;;;-3.39;74.08
78117;BME280;69042;59.120;37.904;2023-12-28T04:01:38;99325.28;;;-3.41;74.07
78117;BME280;69042;59.120;37.904;2023-12-28T04:04:04;99335.47;;;-3.46;74.59
78117;BME280;69042;59.120;37.904;2023-12-28T04:06:30;99333.78;;;-3.48;74.67
78117;BME280;69042;59.120;37.904;2023-12-28T04:08:57;99343.13;;;-3.47;74.15
78117;BME280;69042;59.120;37.904;2023-12-28T04:11:24;99348.22;;;-3.52;74.36
78117;BME280;69042;59.120;37.904;2023-12-28T04:13:51;99349.09;;;-3.53;74.90
78117;BME280;69042;59.120;37.904;2023-12-28T04:16:17;99360.97;;;-3.57;74.29
78117;BME280;69042;59.120;37.904;2023-12-28T04:18:44;99353.31;;;-3.63;74.45
78117;BME280;69042;59.120;37.904;2023-12-28T04:21:12;99358.41;;;-3.63;74.69
78117;BME280;69042;59.120;37.904;2023-12-28T04:23:41;99354.16;;;-3.64;74.47
78117;BME280;69042;59.120;37.904;2023-12-28T04:26:07;99355.03;;;-3.60;74.61
78117;BME280;69042;59.120;37.904;2023-12-28T04:28:34;99366.97;;;-3.53;75.15
78117;BME280;69042;59.120;37.904;2023-12-28T04:31:05;99366.97;;;-3.45;75.50
78117;BME280;69042;59.120;37.904;2023-12-28T04:33:32;99361.03;;;-3.38;74.69
78117;BME280;69042;59.120;37.904;2023-12-28T04:36:02;99360.19;;;-3.37;74.03
78117;BME280;69042;59.120;37.904;2023-12-28T04:38:32;99368.69;;;-3.38;74.09
78117;BME280;69042;59.120;37.904;2023-12-28T04:40:59;99369.56;;;-3.39;74.28
78117;BME280;69042;59.120;37.904;2023-12-28T04:43:26;99381.47;;;-3.40;73.93
78117;BME280;69042;59.120;37.904;2023-12-28T04:45:53;99362.72;;;-3.45;73.93
78117;BME280;69042;59.120;37.904;2023-12-28T04:48:19;99372.06;;;-3.51;73.19
78117;BME280;69042;59.120;37.904;2023-12-28T04:50:48;99362.69;;;-3.57;74.00
78117;BME280;69042;59.120;37.904;2023-12-28T04:53:15;99383.13;;;-3.57;73.68
78117;BME280;69042;59.120;37.904;2023-12-28T04:55:42;99361.81;;;-3.64;73.31
78117;BME280;69042;59.120;37.904;2023-12-28T04:58:10;99366.06;;;-3.66;73.62
78117;BME280;69042;59.120;37.904;2023-12-28T05:00:37;99365.22;;;-3.65;73.78
78117;BME280;69042;59.120;37.904;2023-12-28T05:03:03;99364.38;;;-3.68;73.59
78117;BME280;69042;59.120;37.904;2023-12-28T05:05:30;99378.84;;;-3.66;74.29
78117;BME280;69042;59.120;37.904;2023-12-28T05:07:56;99378.84;;;-3.60;73.80
78117;BME280;69042;59.120;37.904;2023-12-28T05:10:22;99388.22;;;-3.62;73.93
78117;BME280;69042;59.120;37.904;2023-12-28T05:12:49;99377.13;;;-3.61;73.74
78117;BME280;69042;59.120;37.904;2023-12-28T05:15:15;99376.28;;;-3.64;72.81
78117;BME280;69042;59.120;37.904;2023-12-28T05:17:41;99369.47;;;-3.65;73.74
78117;BME280;69042;59.120;37.904;2023-12-28T05:20:08;99373.72;;;-3.66;73.12
78117;BME280;69042;59.120;37.904;2023-12-28T05:22:34;99383.94;;;-3.66;72.99
78117;BME280;69042;59.120;37.904;2023-12-28T05:25:01;99383.09;;;-3.63;73.11
78117;BME280;69042;59.120;37.904;2023-12-28T05:27:27;99385.63;;;-3.65;73.49
78117;BME280;69042;59.120;37.904;2023-12-28T05:29:54;99382.22;;;-3.68;72.45
78117;BME280;69042;59.120;37.904;2023-12-28T05:32:21;99388.16;;;-3.69;72.72
78117;BME280;69042;59.120;37.904;2023-12-28T05:34:47;99397.53;;;-3.70;72.47
78117;BME280;69042;59.120;37.904;2023-12-28T05:37:15;99388.19;;;-3.68;72.71
78117;BME280;69042;59.120;37.904;2023-12-28T05:39:42;99395.00;;;-3.67;73.16
78117;BME280;69042;59.120;37.904;2023-12-28T05:42:08;99398.41;;;-3.65;73.20
78117;BME280;69042;59.120;37.904;2023-12-28T05:44:35;99397.56;;;-3.62;72.85
78117;BME280;69042;59.120;37.904;2023-12-28T05:47:01;99404.38;;;-3.58;73.09
78117;BME280;69042;59.120;37.904;2023-12-28T05:49:30;99403.56;;;-3.56;72.42
78117;BME280;69042;59.120;37.904;2023-12-28T05:51:56;99420.59;;;-3.53;73.14
78117;BME280;69042;59.120;37.904;2023-12-28T05:54:23;99426.53;;;-3.56;72.43
78117;BME280;69042;59.120;37.904;2023-12-28T05:56:49;99419.72;;;-3.57;71.88
78117;BME280;69042;59.120;37.904;2023-12-28T05:59:16;99425.66;;;-3.64;71.82
78117;BME280;69042;59.120;37.904;2023-12-28T06:01:43;99452.03;;;-3.66;72.95
78117;BME280;69042;59.120;37.904;2023-12-28T06:04:10;99431.59;;;-3.66;72.46
78117;BME280;69042;59.120;37.904;2023-12-28T06:06:37;99442.63;;;-3.67;71.75
78117;BME280;69042;59.120;37.904;2023-12-28T06:09:03;99440.94;;;-3.68;72.53
78117;BME280;69042;59.120;37.904;2023-12-28T06:11:30;99443.53;;;-3.67;72.40
78117;BME280;69042;59.120;37.904;2023-12-28T06:13:57;99446.06;;;-3.65;72.76
78117;BME280;69042;59.120;37.904;2023-12-28T06:16:23;99442.66;;;-3.63;71.97
78117;BME280;69042;59.120;37.904;2023-12-28T06:18:51;99440.13;;;-3.64;72.16
78117;BME280;69042;59.120;37.904;2023-12-28T06:21:18;99448.66;;;-3.62;72.26
78117;BME280;69042;59.120;37.904;2023-12-28T06:23:44;99449.50;;;-3.57;72.60
78117;BME280;69042;59.120;37.904;2023-12-28T06:26:11;99449.53;;;-3.49;72.66
78117;BME280;69042;59.120;37.904;2023-12-28T06:28:37;99450.38;;;-3.47;72.48
78117;BME280;69042;59.120;37.904;2023-12-28T06:31:03;99446.16;;;-3.41;72.65
78117;BME280;69042;59.120;37.904;2023-12-28T06:33:30;99449.56;;;-3.39;72.44
78117;BME280;69042;59.120;37.904;2023-12-28T06:35:57;99447.00;;;-3.40;72.06
78117;BME280;69042;59.120;37.904;2023-12-28T06:38:24;99435.97;;;-3.39;72.43
78117;BME280;69042;59.120;37.904;2023-12-28T06:40:51;99456.38;;;-3.36;72.05
78117;BME280;69042;59.120;37.904;2023-12-28T06:43:18;99457.25;;;-3.34;72.42
78117;BME280;69042;59.120;37.904;2023-12-28T06:45:44;99450.44;;;-3.35;71.70
78117;BME280;69042;59.120;37.904;2023-12-28T06:48:10;99458.97;;;-3.38;72.38
78117;BME280;69042;59.120;37.904;2023-12-28T06:50:36;99483.66;;;-3.35;72.09
78117;BME280;69042;59.120;37.904;2023-12-28T06:53:03;99467.44;;;-3.39;72.00
78117;BME280;69042;59.120;37.904;2023-12-28T06:55:29;99464.06;;;-3.42;71.66
78117;BME280;69042;59.120;37.904;2023-12-28T06:57:56;99458.91;;;-3.47;71.94
78117;BME280;69042;59.120;37.904;2023-12-28T07:00:23;99466.53;;;-3.51;71.95
78117;BME280;69042;59.120;37.904;2023-12-28T07:02:49;99470.81;;;-3.52;72.00
78117;BME280;69042;59.120;37.904;2023-12-28T07:05:15;99464.84;;;-3.56;72.48
78117;BME280;69042;59.120;37.904;2023-12-28T07:07:42;99472.50;;;-3.57;72.80
78117;BME280;69042;59.120;37.904;2023-12-28T07:10:08;99475.03;;;-3.62;72.12
78117;BME280;69042;59.120;37.904;2023-12-28T07:12:35;99460.53;;;-3.61;72.48
78117;BME280;69042;59.120;37.904;2023-12-28T07:15:01;99477.63;;;-3.56;72.15
78117;BME280;69042;59.120;37.904;2023-12-28T07:17:28;99464.81;;;-3.57;73.01
78117;BME280;69042;59.120;37.904;2023-12-28T07:19:54;99476.75;;;-3.54;72.66
78117;BME280;69042;59.120;37.904;2023-12-28T07:22:21;99478.44;;;-3.53;72.50
78117;BME280;69042;59.120;37.904;2023-12-28T07:24:47;99475.94;;;-3.50;72.47
78117;BME280;69042;59.120;37.904;2023-12-28T07:27:13;99484.44;;;-3.48;72.72
78117;BME280;69042;59.120;37.904;2023-12-28T07:29:39;99482.75;;;-3.46;72.92
78117;BME280;69042;59.120;37.904;2023-12-28T07:32:06;99489.56;;;-3.45;72.17
78117;BME280;69042;59.120;37.904;2023-12-28T07:34:34;99483.59;;;-3.46;72.94
78117;BME280;69042;59.120;37.904;2023-12-28T07:37:00;99491.31;;;-3.40;72.62
78117;BME280;69042;59.120;37.904;2023-12-28T07:39:26;99483.63;;;-3.41;72.98
78117;BME280;69042;59.120;37.904;2023-12-28T07:41:53;99482.75;;;-3.40;71.91
78117;BME280;69042;59.120;37.904;2023-12-28T07:44:21;99477.66;;;-3.39;72.44
78117;BME280;69042;59.120;37.904;2023-12-28T07:46:47;99465.72;;;-3.43;72.43
78117;BME280;69042;59.120;37.904;2023-12-28T07:49:14;99484.47;;;-3.39;72.40
78117;BME280;69042;59.120;37.904;2023-12-28T07:51:40;99477.66;;;-3.39;72.25
78117;BME280;69042;59.120;37.904;2023-12-28T07:54:06;99479.38;;;-3.39;72.31
78117;BME280;69042;59.120;37.904;2023-12-28T07:56:32;99481.94;;;-3.38;72.30
78117;BME280;69042;59.120;37.904;2023-12-28T07:58:59;99488.72;;;-3.41;72.08
78117;BME280;69042;59.120;37.904;2023-12-28T08:01:25;99479.34;;;-3.45;72.34
78117;BME280;69042;59.120;37.904;2023-12-28T08:03:51;99480.22;;;-3.43;72.92
78117;BME280;69042;59.120;37.904;2023-12-28T08:06:18;99470.00;;;-3.42;72.79
78117;BME280;69042;59.120;37.904;2023-12-28T08:08:44;99471.72;;;-3.39;72.86
78117;BME280;69042;59.120;37.904;2023-12-28T08:11:10;99480.22;;;-3.36;72.65
78117;BME280;69042;59.120;37.904;2023-12-28T08:13:38;99457.25;;;-3.32;72.40
78117;BME280;69042;59.120;37.904;2023-12-28T08:16:04;99459.81;;;-3.29;73.04
78117;BME280;69042;59.120;37.904;2023-12-28T08:18:31;99460.69;;;-3.23;72.49
78117;BME280;69042;59.120;37.904;2023-12-28T08:20:57;99461.56;;;-3.21;73.01
78117;BME280;69042;59.120;37.904;2023-12-28T08:23:25;99461.56;;;-3.16;72.56
78117;BME280;69042;59.120;37.904;2023-12-28T08:25:51;99454.78;;;-3.09;72.63
78117;BME280;69042;59.120;37.904;2023-12-28T08:28:17;99455.63;;;-3.04;72.64
78117;BME280;69042;59.120;37.904;2023-12-28T08:30:44;99452.22;;;-3.06;71.97
78117;BME280;69042;59.120;37.904;2023-12-28T08:33:10;99458.19;;;-3.04;72.83
78117;BME280;69042;59.120;37.904;2023-12-28T08:35:36;99455.63;;;-3.04;72.27
78117;BME280;69042;59.120;37.904;2023-12-28T08:38:03;99452.19;;;-3.11;72.80
78117;BME280;69042;59.120;37.904;2023-12-28T08:40:29;99465.84;;;-3.07;72.25
78117;BME280;69042;59.120;37.904;2023-12-28T08:42:56;99454.78;;;-3.12;72.53
78117;BME280;69042;59.120;37.904;2023-12-28T08:45:22;99460.72;;;-3.12;72.21
78117;BME280;69042;59.120;37.904;2023-12-28T08:47:48;99456.50;;;-3.08;72.45
78117;BME280;69042;59.120;37.904;2023-12-28T08:50:15;99450.53;;;-3.06;72.35
78117;BME280;69042;59.120;37.904;2023-12-28T08:52:41;99460.75;;;-3.07;71.88
78117;BME280;69042;59.120;37.904;2023-12-28T08:55:08;99455.63;;;-3.04;72.05
78117;BME280;69042;59.120;37.904;2023-12-28T08:57:34;99457.34;;;-3.05;72.63
78117;BME280;69042;59.120;37.904;2023-12-28T09:00:00;99468.41;;;-3.06;72.38
78117;BME280;69042;59.120;37.904;2023-12-28T09:02:29;99465.84;;;-3.07;71.98
78117;BME280;69042;59.120;37.904;2023-12-28T09:04:57;99457.31;;;-3.11;72.90
78117;BME280;69042;59.120;37.904;2023-12-28T09:07:24;99453.91;;;-3.07;72.92
78117;BME280;69042;59.120;37.904;2023-12-28T09:09:51;99463.28;;;-3.04;72.25
78117;BME280;69042;59.120;37.904;2023-12-28T09:12:17;99453.94;;;-3.02;72.23
78117;BME280;69042;59.120;37.904;2023-12-28T09:14:43;99457.34;;;-3.00;72.14
78117;BME280;69042;59.120;37.904;2023-12-28T09:17:11;99444.56;;;-3.00;72.02
78117;BME280;69042;59.120;37.904;2023-12-28T09:19:37;99453.09;;;-2.98;73.04
78117;BME280;69042;59.120;37.904;2023-12-28T09:22:04;99454.81;;;-2.94;72.61
78117;BME280;69042;59.120;37.904;2023-12-28T09:24:30;99447.16;;;-2.88;72.80
78117;BME280;69042;59.120;37.904;2023-12-28T09:26:56;99448.84;;;-2.84;73.03
78117;BME280;69042;59.120;37.904;2023-12-28T09:29:23;99448.03;;;-2.77;72.40
78117;BME280;69042;59.120;37.904;2023-12-28T09:31:49;99459.13;;;-2.75;72.70
78117;BME280;69042;59.120;37.904;2023-12-28T09:34:15;99459.09;;;-2.73;73.00
78117;BME280;69042;59.120;37.904;2023-12-28T09:36:42;99459.09;;;-2.68;73.02
78117;BME280;69042;59.120;37.904;2023-12-28T09:39:08;99454.84;;;-2.62;72.47
78117;BME280;69042;59.120;37.904;2023-12-28T09:41:39;99471.06;;;-2.57;72.17
78117;BME280;69042;59.120;37.904;2023-12-28T09:44:12;99470.19;;;-2.59;72.16
78117;BME280;69042;59.120;37.904;2023-12-28T09:46:42;99461.66;;;-2.59;72.32
78117;BME280;69042;59.120;37.904;2023-12-28T09:49:10;99467.63;;;-2.66;71.89
78117;BME280;69042;59.120;37.904;2023-12-28T09:51:36;99465.06;;;-2.73;72.23
78117;BME280;69042;59.120;37.904;2023-12-28T09:54:06;99469.31;;;-2.73;72.54
78117;BME280;69042;59.120;37.904;2023-12-28T09:56:33;99464.22;;;-2.72;72.24
78117;BME280;69042;59.120;37.904;2023-12-28T09:58:59;99465.06;;;-2.71;72.53
78117;BME280;69042;59.120;37.904;2023-12-28T10:01:27;99465.06;;;-2.74;71.68
78117;BME280;69042;59.120;37.904;2023-12-28T10:03:53;99465.06;;;-2.74;72.30
78117;BME280;69042;59.120;37.904;2023-12-28T10:06:20;99457.38;;;-2.73;72.07
78117;BME280;69042;59.120;37.904;2023-12-28T10:08:50;99469.31;;;-2.73;71.98
78117;BME280;69042;59.120;37.904;2023-12-28T10:11:20;99471.03;;;-2.74;72.21
78117;BME280;69042;59.120;37.904;2023-12-28T10:13:48;99469.31;;;-2.73;72.98
78117;BME280;69042;59.120;37.904;2023-12-28T10:16:16;99464.22;;;-2.75;72.21
78117;BME280;69042;59.120;37.904;2023-12-28T10:18:42;99468.44;;;-2.80;72.50
78117;BME280;69042;59.120;37.904;2023-12-28T10:21:10;99471.88;;;-2.82;72.40
78117;BME280;69042;59.120;37.904;2023-12-28T10:23:37;99475.28;;;-2.83;72.25
78117;BME280;69042;59.120;37.904;2023-12-28T10:26:04;99476.13;;;-2.87;72.46
78117;BME280;69042;59.120;37.904;2023-12-28T10:28:36;99477.84;;;-2.85;72.44
78117;BME280;69042;59.120;37.904;2023-12-28T10:31:04;99481.22;;;-2.84;72.46
78117;BME280;69042;59.120;37.904;2023-12-28T10:33:37;99477.81;;;-2.82;72.88
78117;BME280;69042;59.120;37.904;2023-12-28T10:36:08;99467.63;;;-2.83;72.48
78117;BME280;69042;59.120;37.904;2023-12-28T10:38:35;99478.69;;;-2.80;72.62
78117;BME280;69042;59.120;37.904;2023-12-28T10:41:08;99471.00;;;-2.84;72.79
78117;BME280;69042;59.120;37.904;2023-12-28T10:44:04;99471.00;;;-2.89;72.44
78117;BME280;69042;59.120;37.904;2023-12-28T10:46:32;99480.38;;;-2.86;73.28
78117;BME280;69042;59.120;37.904;2023-12-28T10:49:05;99474.41;;;-2.87;73.37
78117;BME280;69042;59.120;37.904;2023-12-28T10:51:34;99475.28;;;-2.83;72.76
78117;BME280;69042;59.120;37.904;2023-12-28T10:54:28;99476.97;;;-2.85;72.82
78117;BME280;69042;59.120;37.904;2023-12-28T10:57:06;99473.59;;;-2.86;73.12
78117;BME280;69042;59.120;37.904;2023-12-28T10:59:45;99472.72;;;-2.83;73.41
78117;BME280;69042;59.120;37.904;2023-12-28T11:02:16;99473.56;;;-2.80;73.87
78117;BME280;69042;59.120;37.904;2023-12-28T11:04:50;99470.19;;;-2.79;73.27
78117;BME280;69042;59.120;37.904;2023-12-28T11:07:19;99471.00;;;-2.80;73.25
78117;BME280;69042;59.120;37.904;2023-12-28T11:09:47;99472.72;;;-2.80;74.04
78117;BME280;69042;59.120;37.904;2023-12-28T11:12:16;99472.72;;;-2.79;73.34
78117;BME280;69042;59.120;37.904;2023-12-28T11:14:47;99466.75;;;-2.79;73.83
78117;BME280;69042;59.120;37.904;2023-12-28T11:17:15;99466.75;;;-2.78;74.00
78117;BME280;69042;59.120;37.904;2023-12-28T11:19:42;99477.84;;;-2.74;73.82
78117;BME280;69042;59.120;37.904;2023-12-28T11:22:11;99473.56;;;-2.75;74.05
78117;BME280;69042;59.120;37.904;2023-12-28T11:24:38;99457.38;;;-2.83;73.78
78117;BME280;69042;59.120;37.904;2023-12-28T11:27:05;99463.34;;;-2.78;74.36
78117;BME280;69042;59.120;37.904;2023-12-28T11:29:32;99468.47;;;-2.77;73.77
78117;BME280;69042;59.120;37.904;2023-12-28T11:31:59;99472.72;;;-2.77;73.90
78117;BME280;69042;59.120;37.904;2023-12-28T11:34:32;99464.19;;;-2.78;74.95
78117;BME280;69042;59.120;37.904;2023-12-28T11:37:22;99476.13;;;-2.80;74.92
78117;BME280;69042;59.120;37.904;2023-12-28T11:39:49;99466.75;;;-2.84;74.40
78117;BME280;69042;59.120;37.904;2023-12-28T11:42:20;99459.06;;;-2.84;74.68
78117;BME280;69042;59.120;37.904;2023-12-28T11:44:47;99470.16;;;-2.83;74.66
78117;BME280;69042;59.120;37.904;2023-12-28T11:47:25;99473.56;;;-2.80;74.95
78117;BME280;69042;59.120;37.904;2023-12-28T11:49:53;99478.69;;;-2.81;75.13
78117;BME280;69042;59.120;37.904;2023-12-28T11:52:25;99467.59;;;-2.85;75.42
78117;BME280;69042;59.120;37.904;2023-12-28T11:54:52;99460.78;;;-2.83;74.93
78117;BME280;69042;59.120;37.904;2023-12-28T11:57:19;99448.00;;;-2.84;74.87
78117;BME280;69042;59.120;37.904;2023-12-28T11:59:45;99453.97;;;-2.81;74.88
78117;BME280;69042;59.120;37.904;2023-12-28T12:02:13;99454.81;;;-2.82;74.78
78117;BME280;69042;59.120;37.904;2023-12-28T12:04:40;99452.28;;;-2.79;75.24
78117;BME280;69042;59.120;37.904;2023-12-28T12:07:06;99446.31;;;-2.76;74.89
78117;BME280;69042;59.120;37.904;2023-12-28T12:09:32;99454.81;;;-2.73;75.04
78117;BME280;69042;59.120;37.904;2023-12-28T12:12:01;99450.56;;;-2.74;74.66
78117;BME280;69042;59.120;37.904;2023-12-28T12:14:28;99446.31;;;-2.75;74.66
78117;BME280;69042;59.120;37.904;2023-12-28T12:16:56;99444.59;;;-2.80;74.27
78117;BME280;69042;59.120;37.904;2023-12-28T12:19:23;99449.72;;;-2.79;74.66
78117;BME280;69042;59.120;37.904;2023-12-28T12:21:55;99442.03;;;-2.80;74.22
78117;BME280;69042;59.120;37.904;2023-12-28T12:24:23;99440.34;;;-2.77;74.13
78117;BME280;69042;59.120;37.904;2023-12-28T12:26:50;99449.72;;;-2.77;74.24
78117;BME280;69042;59.120;37.904;2023-12-28T12:29:17;99458.25;;;-2.77;74.21
78117;BME280;69042;59.120;37.904;2023-12-28T12:31:44;99454.00;;;-2.72;73.85
78117;BME280;69042;59.120;37.904;2023-12-28T12:34:16;99451.44;;;-2.68;74.12
78117;BME280;69042;59.120;37.904;2023-12-28T12:36:42;99452.28;;;-2.65;74.08
78117;BME280;69042;59.120;37.904;2023-12-28T12:39:10;99444.63;;;-2.65;74.17
78117;BME280;69042;59.120;37.904;2023-12-28T12:41:37;99448.00;;;-2.66;73.53
78117;BME280;69042;59.120;37.904;2023-12-28T12:44:04;99457.41;;;-2.66;73.75
78117;BME280;69042;59.120;37.904;2023-12-28T12:46:31;99455.69;;;-2.64;74.06
78117;BME280;69042;59.120;37.904;2023-12-28T12:48:59;99457.41;;;-2.63;73.46
78117;BME280;69042;59.120;37.904;2023-12-28T12:51:26;99455.72;;;-2.63;73.69
78117;BME280;69042;59.120;37.904;2023-12-28T12:54:00;99449.72;;;-2.65;74.13
78117;BME280;69042;59.120;37.904;2023-12-28T12:56:27;99456.56;;;-2.62;73.46